createdAt,value
2018-04-17T00:00:03.359Z,24.87
2018-04-17T00:05:04.673Z,16.50
2018-04-17T00:10:06.009Z,20.07
2018-04-17T00:15:07.302Z,18.07
2018-04-17T00:20:08.627Z,18.23
2018-04-17T00:25:09.949Z,16.00
2018-04-17T00:30:11.293Z,24.50
2018-04-17T00:35:12.620Z,19.17
2018-04-17T00:40:14.658Z,15.30
2018-04-17T00:45:15.975Z,13.43
2018-04-17T00:50:17.293Z,24.13
2018-04-17T00:55:18.595Z,22.10
2018-04-17T01:00:20.685Z,19.43
2018-04-17T01:05:22.034Z,16.40
2018-04-17T01:10:23.374Z,12.17
2018-04-17T01:15:25.431Z,10.53
2018-04-17T01:20:26.754Z,10.63
2018-04-17T01:25:28.113Z,17.70
2018-04-17T01:30:29.417Z,14.33
2018-04-17T01:35:30.767Z,15.77
2018-04-17T01:40:32.074Z,13.93
2018-04-17T01:45:33.398Z,12.87
2018-04-17T01:50:34.697Z,14.50
2018-04-17T01:55:36.034Z,13.80
2018-04-17T02:00:37.349Z,9.57
2018-04-17T02:05:38.661Z,9.20
2018-04-17T02:10:39.963Z,12.33
2018-04-17T02:15:41.279Z,10.07
2018-04-17T02:20:42.620Z,9.33
2018-04-17T02:25:43.938Z,13.00
2018-04-17T02:30:46.007Z,10.77
2018-04-17T02:35:47.334Z,12.90
2018-04-17T02:40:49.403Z,9.20
2018-04-17T02:45:50.728Z,14.83
2018-04-17T02:50:52.802Z,29.17
2018-04-17T02:55:54.110Z,21.03
2018-04-17T03:00:55.427Z,10.23
2018-04-17T03:05:56.743Z,5.20
2018-04-17T03:10:58.049Z,6.83
2018-04-17T03:15:59.361Z,13.30
2018-04-17T03:21:00.721Z,11.37
2018-04-17T03:26:02.040Z,16.67
2018-04-17T03:31:03.355Z,17.07
2018-04-17T03:36:05.435Z,9.83
2018-04-17T03:41:06.749Z,12.53
2018-04-17T03:46:08.808Z,18.10
2018-04-17T03:51:10.135Z,10.83
2018-04-17T03:56:12.178Z,11.77
2018-04-17T04:01:13.505Z,21.63
2018-04-17T04:06:14.823Z,20.60
2018-04-17T04:11:16.870Z,11.00
2018-04-17T04:16:36.618Z,13.93
2018-04-17T04:21:56.399Z,13.30
2018-04-17T04:26:57.739Z,9.23
2018-04-17T04:31:59.050Z,13.80
2018-04-17T04:37:01.162Z,16.27
2018-04-17T04:42:03.237Z,13.40
2018-04-17T04:47:04.574Z,25.73
2018-04-17T04:52:06.707Z,14.57
2018-04-17T04:57:08.733Z,19.53
2018-04-17T05:02:10.083Z,12.50
2018-04-17T05:07:11.386Z,13.13
2018-04-17T05:12:12.747Z,16.53
2018-04-17T05:17:14.786Z,18.47
2018-04-17T05:22:16.107Z,17.57
2018-04-17T05:27:17.414Z,13.50
2018-04-17T05:32:19.460Z,12.63
2018-04-17T05:37:20.799Z,22.73
2018-04-17T05:42:22.147Z,15.37
2018-04-17T05:47:23.469Z,17.20
2018-04-17T05:52:24.809Z,21.80
2018-04-17T05:57:26.114Z,16.33
2018-04-17T06:02:27.435Z,13.93
2018-04-17T06:07:28.745Z,14.43
2018-04-17T06:12:30.782Z,14.57
2018-04-17T06:17:32.101Z,12.70
2018-04-17T06:22:33.403Z,17.40
2018-04-17T06:27:34.740Z,14.80
2018-04-17T06:32:36.798Z,16.63
2018-04-17T06:37:38.115Z,14.50
2018-04-17T06:42:40.188Z,24.80
2018-04-17T06:47:41.563Z,17.57
2018-04-17T06:52:43.642Z,20.90
2018-04-17T06:57:44.908Z,31.27
2018-04-17T07:02:46.218Z,26.43
2018-04-17T07:07:48.270Z,35.10
2018-04-17T07:12:49.593Z,28.87
2018-04-17T07:17:50.898Z,39.83
2018-04-17T07:22:52.941Z,35.97
2018-04-17T07:27:54.254Z,35.90
2018-04-17T07:32:55.584Z,37.20
2018-04-17T07:37:57.656Z,44.13
2018-04-17T07:42:58.979Z,37.80
2018-04-17T07:48:22.485Z,41.20
2018-04-17T07:53:24.545Z,32.97
2018-04-17T07:58:25.902Z,34.43
2018-04-17T08:03:27.240Z,33.57
2018-04-17T08:08:28.538Z,31.67
2018-04-17T08:13:29.846Z,45.80
2018-04-17T08:18:31.918Z,30.40
2018-04-17T08:23:33.234Z,31.83
2018-04-17T08:28:35.307Z,33.63
2018-04-17T08:33:36.617Z,31.07
2018-04-17T08:38:37.927Z,29.27
2018-04-17T08:43:39.971Z,31.20
2018-04-17T08:48:41.299Z,34.20
2018-04-17T08:53:42.620Z,33.40
2018-04-17T08:58:44.687Z,31.20
2018-04-17T09:03:46.007Z,33.60
2018-04-17T09:08:48.047Z,37.40
2018-04-17T09:13:49.373Z,31.27
2018-04-17T09:18:50.700Z,35.43
2018-04-17T09:23:52.759Z,34.00
2018-04-17T09:28:54.071Z,37.97
2018-04-17T09:33:55.382Z,21.07
2018-04-17T09:38:57.418Z,22.10
2018-04-17T09:43:58.739Z,25.50
2018-04-17T09:49:00.050Z,23.30
2018-04-17T09:54:02.103Z,24.70
2018-04-17T09:59:03.438Z,22.90
2018-04-17T10:04:04.779Z,24.57
2018-04-17T10:09:06.179Z,18.20
2018-04-17T10:14:08.191Z,17.20
2018-04-17T10:19:09.506Z,14.07
2018-04-17T10:24:10.824Z,29.00
2018-04-17T10:29:12.939Z,16.07
2018-04-17T10:34:14.270Z,15.57
2018-04-17T10:39:15.578Z,17.90
2018-04-17T10:44:16.898Z,20.00
2018-04-17T10:49:18.951Z,16.93
2018-04-17T10:54:20.269Z,21.73
2018-04-17T10:59:21.582Z,20.90
2018-04-17T11:04:22.922Z,18.67
2018-04-17T11:09:24.263Z,18.20
2018-04-17T11:14:26.300Z,16.37
2018-04-17T11:19:27.620Z,17.70
2018-04-17T11:24:28.955Z,19.63
2018-04-17T11:29:30.271Z,23.87
2018-04-17T11:34:31.617Z,25.53
2018-04-17T11:39:33.670Z,21.40
2018-04-17T11:44:34.991Z,20.23
2018-04-17T11:49:36.326Z,18.93
2018-04-17T11:54:37.633Z,16.67
2018-04-17T11:59:38.995Z,34.50
2018-04-17T12:04:41.075Z,19.73
2018-04-17T12:09:42.411Z,16.63
2018-04-17T12:14:43.769Z,19.00
2018-04-17T12:19:45.080Z,11.03
2018-04-17T12:24:46.402Z,15.50
2018-04-17T12:29:47.727Z,13.00
2018-04-17T12:34:49.037Z,9.80
2018-04-17T12:39:50.365Z,13.13
2018-04-17T12:44:51.689Z,5.27
2018-04-17T12:49:53.022Z,12.83
2018-04-17T12:54:54.355Z,5.60
2018-04-17T12:59:55.677Z,22.30
2018-04-17T13:04:57.766Z,8.73
2018-04-17T13:09:59.089Z,13.40
2018-04-17T13:15:00.419Z,11.10
2018-04-17T13:20:01.751Z,13.77
2018-04-17T13:25:03.825Z,7.97
2018-04-17T13:30:05.158Z,13.90
2018-04-17T13:35:06.475Z,12.67
2018-04-17T13:40:07.838Z,13.57
2018-04-17T13:45:09.883Z,11.80
2018-04-17T13:50:12.126Z,10.43
2018-04-17T13:55:13.457Z,14.60
2018-04-17T14:00:14.826Z,12.60
2018-04-17T14:05:16.885Z,14.20
2018-04-17T14:10:18.218Z,19.30
2018-04-17T14:15:20.268Z,12.73
2018-04-17T14:20:21.592Z,14.00
2018-04-17T14:25:22.923Z,12.70
2018-04-17T14:30:24.222Z,22.70
2018-04-17T14:35:25.554Z,17.13
2018-04-17T14:40:26.922Z,15.03
2018-04-17T14:45:28.250Z,17.27
2018-04-17T14:50:29.611Z,17.10
2018-04-17T14:55:30.956Z,16.67
2018-04-17T15:00:32.287Z,33.13
2018-04-17T15:05:33.618Z,21.20
2018-04-17T15:10:35.728Z,17.17
2018-04-17T15:15:37.783Z,21.13
2018-04-17T15:20:39.106Z,15.40
2018-04-17T15:25:40.401Z,15.70
2018-04-17T15:30:41.699Z,14.80
2018-04-17T15:35:43.767Z,22.87
2018-04-17T15:40:45.138Z,16.53
2018-04-17T15:45:46.490Z,18.67
2018-04-17T15:50:48.602Z,17.70
2018-04-17T15:55:50.679Z,22.53
2018-04-17T16:00:52.006Z,17.87
2018-04-17T16:05:53.413Z,20.50
2018-04-17T16:10:55.530Z,18.23
2018-04-17T16:15:56.859Z,16.90
2018-04-17T16:20:58.203Z,19.90
2018-04-17T16:25:59.539Z,23.20
2018-04-17T16:31:00.901Z,18.40
2018-04-17T16:36:02.223Z,20.93
2018-04-17T16:41:03.596Z,19.60
2018-04-17T16:46:04.915Z,19.87
2018-04-17T16:51:06.980Z,21.57
2018-04-17T16:56:08.298Z,19.07
2018-04-17T17:01:09.599Z,20.57
2018-04-17T17:06:10.949Z,21.37
2018-04-17T17:11:12.269Z,23.77
2018-04-17T17:16:13.584Z,20.90
2018-04-17T17:21:14.937Z,24.80
2018-04-17T17:26:16.285Z,22.10
2018-04-17T17:31:17.625Z,16.50
2018-04-17T17:36:18.951Z,22.17
2018-04-17T17:41:20.367Z,26.40
2018-04-17T17:46:21.900Z,21.20
2018-04-17T17:51:24.050Z,16.37
2018-04-17T17:56:25.357Z,18.77
2018-04-17T18:01:26.691Z,15.30
2018-04-17T18:06:28.305Z,18.93
2018-04-17T18:11:29.722Z,18.70
2018-04-17T18:16:31.068Z,19.07
2018-04-17T18:21:32.462Z,20.17
2018-04-17T18:26:33.830Z,17.73
2018-04-17T18:31:35.144Z,20.47
2018-04-17T18:36:37.209Z,14.47
2018-04-17T18:41:38.548Z,20.53
2018-04-17T18:46:40.467Z,21.57
2018-04-17T18:51:41.843Z,16.03
2018-04-17T18:56:44.020Z,20.00
2018-04-17T19:01:46.195Z,20.93
2018-04-17T19:06:48.517Z,25.37
2018-04-17T19:11:49.817Z,18.40
2018-04-17T19:16:51.853Z,22.40
2018-04-17T19:21:53.909Z,17.47
2018-04-17T19:26:56.023Z,19.37
2018-04-17T19:31:57.334Z,19.80
2018-04-17T19:36:59.451Z,19.13
2018-04-17T19:42:00.844Z,13.93
2018-04-17T19:47:02.167Z,21.80
2018-04-17T19:52:03.559Z,18.47
2018-04-17T19:57:04.864Z,22.07
2018-04-17T20:02:06.389Z,21.60
2018-04-17T20:07:07.698Z,12.47
2018-04-17T20:12:09.002Z,19.13
2018-04-17T20:17:11.087Z,23.30
2018-04-17T20:22:12.580Z,18.00
2018-04-17T20:27:13.878Z,17.20
2018-04-17T20:32:15.183Z,15.47
2018-04-17T20:37:17.259Z,18.13
2018-04-17T20:42:18.563Z,13.13
2018-04-17T20:47:19.882Z,14.17
2018-04-17T20:52:21.285Z,15.53
2018-04-17T20:57:22.594Z,16.90
2018-04-17T21:02:23.893Z,17.90
2018-04-17T21:07:25.209Z,17.10
2018-04-17T21:12:26.505Z,16.50
2018-04-17T21:17:27.813Z,16.60
2018-04-17T21:22:29.879Z,20.10
2018-04-17T21:27:31.186Z,19.20
2018-04-17T21:32:32.478Z,15.57
2018-04-17T21:37:33.778Z,19.33
2018-04-17T21:42:35.822Z,21.73
2018-04-17T21:47:37.123Z,20.67
2018-04-17T21:52:38.446Z,18.47
2018-04-17T21:57:39.745Z,16.27
2018-04-17T22:02:41.793Z,15.53
2018-04-17T22:07:43.081Z,16.10
2018-04-17T22:12:44.398Z,18.57
2018-04-17T22:17:45.706Z,13.87
2018-04-17T22:22:47.765Z,13.80
2018-04-17T22:27:49.083Z,15.50
2018-04-17T22:32:50.397Z,15.17
2018-04-17T22:37:52.454Z,15.17
2018-04-17T22:42:53.786Z,15.47
2018-04-17T22:47:55.105Z,13.40
2018-04-17T22:52:56.437Z,17.57
2018-04-17T22:57:57.752Z,22.20
2018-04-17T23:02:59.069Z,33.80
2018-04-17T23:08:00.375Z,17.70
2018-04-17T23:13:01.681Z,21.93
2018-04-17T23:18:02.978Z,14.37
2018-04-17T23:23:04.270Z,19.80
2018-04-17T23:28:05.558Z,17.63
2018-04-17T23:33:06.870Z,18.70
2018-04-17T23:38:08.168Z,11.60
2018-04-17T23:43:09.459Z,13.20
2018-04-17T23:48:11.533Z,22.07
2018-04-17T23:53:12.859Z,24.63
2018-04-17T23:58:14.890Z,15.57
